sensor_id;sensor_type;location;lat;lon;timestamp;P1;durP1;ratioP1;P2;durP2;ratioP2
9413;SDS011;4746;35.664;139.738;2023-06-04T00:01:15;7.18;;;3.30;;
9413;SDS011;4746;35.664;139.738;2023-06-04T00:03:43;6.95;;;3.30;;
9413;SDS011;4746;35.664;139.738;2023-06-04T00:06:10;5.72;;;3.10;;
9413;SDS011;4746;35.664;139.738;2023-06-04T00:08:38;9.15;;;3.42;;
9413;SDS011;4746;35.664;139.738;2023-06-04T00:11:05;5.85;;;3.28;;
9413;SDS011;4746;35.664;139.738;2023-06-04T00:13:33;6.07;;;2.78;;
9413;SDS011;4746;35.664;139.738;2023-06-04T00:16:00;8.30;;;3.50;;
9413;SDS011;4746;35.664;139.738;2023-06-04T00:18:28;8.52;;;3.35;;
9413;SDS011;4746;35.664;139.738;2023-06-04T00:20:55;6.82;;;3.35;;
9413;SDS011;4746;35.664;139.738;2023-06-04T00:23:23;8.48;;;3.83;;
9413;SDS011;4746;35.664;139.738;2023-06-04T00:25:50;8.30;;;3.38;;
9413;SDS011;4746;35.664;139.738;2023-06-04T00:28:18;7.93;;;4.18;;
9413;SDS011;4746;35.664;139.738;2023-06-04T00:30:46;5.88;;;3.40;;
9413;SDS011;4746;35.664;139.738;2023-06-04T00:33:13;9.70;;;3.75;;
9413;SDS011;4746;35.664;139.738;2023-06-04T00:35:41;9.30;;;4.30;;
9413;SDS011;4746;35.664;139.738;2023-06-04T00:38:09;8.88;;;4.13;;
9413;SDS011;4746;35.664;139.738;2023-06-04T00:40:37;8.57;;;3.75;;
9413;SDS011;4746;35.664;139.738;2023-06-04T00:43:04;7.57;;;3.92;;
9413;SDS011;4746;35.664;139.738;2023-06-04T00:45:32;6.70;;;3.55;;
9413;SDS011;4746;35.664;139.738;2023-06-04T00:47:59;7.32;;;3.72;;
9413;SDS011;4746;35.664;139.738;2023-06-04T00:50:27;7.28;;;3.90;;
9413;SDS011;4746;35.664;139.738;2023-06-04T00:52:55;6.20;;;3.72;;
9413;SDS011;4746;35.664;139.738;2023-06-04T00:55:23;10.52;;;4.72;;
9413;SDS011;4746;35.664;139.738;2023-06-04T00:57:51;10.60;;;4.15;;
9413;SDS011;4746;35.664;139.738;2023-06-04T01:00:18;11.98;;;4.50;;
9413;SDS011;4746;35.664;139.738;2023-06-04T01:02:46;11.80;;;4.45;;
9413;SDS011;4746;35.664;139.738;2023-06-04T01:07:58;8.48;;;3.75;;
9413;SDS011;4746;35.664;139.738;2023-06-04T01:10:26;7.93;;;4.35;;
9413;SDS011;4746;35.664;139.738;2023-06-04T01:12:53;8.75;;;4.22;;
9413;SDS011;4746;35.664;139.738;2023-06-04T01:15:21;6.53;;;3.85;;
9413;SDS011;4746;35.664;139.738;2023-06-04T01:17:49;9.85;;;4.97;;
9413;SDS011;4746;35.664;139.738;2023-06-04T01:26:01;9.95;;;4.32;;
9413;SDS011;4746;35.664;139.738;2023-06-04T01:28:30;5.75;;;3.33;;
9413;SDS011;4746;35.664;139.738;2023-06-04T01:31:00;10.90;;;4.82;;
9413;SDS011;4746;35.664;139.738;2023-06-04T01:33:33;13.18;;;4.07;;
9413;SDS011;4746;35.664;139.738;2023-06-04T01:36:01;9.68;;;3.60;;
9413;SDS011;4746;35.664;139.738;2023-06-04T01:38:28;7.10;;;3.45;;
9413;SDS011;4746;35.664;139.738;2023-06-04T01:40:56;7.15;;;3.97;;
9413;SDS011;4746;35.664;139.738;2023-06-04T01:43:27;7.40;;;3.50;;
9413;SDS011;4746;35.664;139.738;2023-06-04T01:45:55;7.13;;;3.50;;
9413;SDS011;4746;35.664;139.738;2023-06-04T01:48:23;8.50;;;3.70;;
9413;SDS011;4746;35.664;139.738;2023-06-04T01:50:51;11.07;;;3.97;;
9413;SDS011;4746;35.664;139.738;2023-06-04T01:53:20;7.70;;;3.83;;
9413;SDS011;4746;35.664;139.738;2023-06-04T01:55:48;5.28;;;3.75;;
9413;SDS011;4746;35.664;139.738;2023-06-04T01:58:16;9.02;;;4.05;;
9413;SDS011;4746;35.664;139.738;2023-06-04T02:00:52;7.57;;;3.53;;
9413;SDS011;4746;35.664;139.738;2023-06-04T02:03:21;8.52;;;3.28;;
9413;SDS011;4746;35.664;139.738;2023-06-04T02:05:48;8.63;;;3.85;;
9413;SDS011;4746;35.664;139.738;2023-06-04T02:08:16;5.13;;;3.40;;
9413;SDS011;4746;35.664;139.738;2023-06-04T02:10:47;8.05;;;3.53;;
9413;SDS011;4746;35.664;139.738;2023-06-04T02:13:15;5.85;;;3.08;;
9413;SDS011;4746;35.664;139.738;2023-06-04T02:15:42;8.20;;;3.70;;
9413;SDS011;4746;35.664;139.738;2023-06-04T02:18:14;7.70;;;3.20;;
9413;SDS011;4746;35.664;139.738;2023-06-04T02:20:46;9.63;;;3.40;;
9413;SDS011;4746;35.664;139.738;2023-06-04T02:23:16;6.72;;;3.45;;
9413;SDS011;4746;35.664;139.738;2023-06-04T02:25:45;13.40;;;4.13;;
9413;SDS011;4746;35.664;139.738;2023-06-04T02:28:15;8.20;;;3.60;;
9413;SDS011;4746;35.664;139.738;2023-06-04T02:30:43;7.45;;;3.35;;
9413;SDS011;4746;35.664;139.738;2023-06-04T02:33:12;5.55;;;2.70;;
9413;SDS011;4746;35.664;139.738;2023-06-04T02:35:40;10.20;;;3.03;;
9413;SDS011;4746;35.664;139.738;2023-06-04T02:38:08;7.00;;;2.88;;
9413;SDS011;4746;35.664;139.738;2023-06-04T02:40:35;6.32;;;2.78;;
9413;SDS011;4746;35.664;139.738;2023-06-04T02:43:04;8.07;;;3.25;;
9413;SDS011;4746;35.664;139.738;2023-06-04T02:45:32;6.63;;;3.10;;
9413;SDS011;4746;35.664;139.738;2023-06-04T02:47:59;9.55;;;3.35;;
9413;SDS011;4746;35.664;139.738;2023-06-04T02:50:27;9.77;;;3.15;;
9413;SDS011;4746;35.664;139.738;2023-06-04T02:52:55;5.80;;;3.63;;
9413;SDS011;4746;35.664;139.738;2023-06-04T02:55:22;7.45;;;3.55;;
9413;SDS011;4746;35.664;139.738;2023-06-04T02:57:50;12.40;;;3.88;;
9413;SDS011;4746;35.664;139.738;2023-06-04T03:00:19;6.22;;;3.38;;
9413;SDS011;4746;35.664;139.738;2023-06-04T03:02:47;5.65;;;3.20;;
9413;SDS011;4746;35.664;139.738;2023-06-04T03:05:15;10.55;;;3.53;;
9413;SDS011;4746;35.664;139.738;2023-06-04T03:07:43;8.45;;;3.20;;
9413;SDS011;4746;35.664;139.738;2023-06-04T03:10:13;7.10;;;3.17;;
9413;SDS011;4746;35.664;139.738;2023-06-04T03:12:41;6.05;;;3.13;;
9413;SDS011;4746;35.664;139.738;2023-06-04T03:15:09;7.25;;;2.95;;
9413;SDS011;4746;35.664;139.738;2023-06-04T03:17:37;7.97;;;3.50;;
9413;SDS011;4746;35.664;139.738;2023-06-04T03:20:06;6.95;;;3.60;;
9413;SDS011;4746;35.664;139.738;2023-06-04T03:22:34;10.05;;;3.90;;
9413;SDS011;4746;35.664;139.738;2023-06-04T03:25:02;5.40;;;3.22;;
9413;SDS011;4746;35.664;139.738;2023-06-04T03:27:31;9.45;;;4.30;;
9413;SDS011;4746;35.664;139.738;2023-06-04T03:29:59;7.80;;;3.72;;
9413;SDS011;4746;35.664;139.738;2023-06-04T03:32:26;9.40;;;3.75;;
9413;SDS011;4746;35.664;139.738;2023-06-04T03:34:54;6.05;;;3.58;;
9413;SDS011;4746;35.664;139.738;2023-06-04T03:37:21;7.63;;;3.60;;
9413;SDS011;4746;35.664;139.738;2023-06-04T03:39:49;8.10;;;4.05;;
9413;SDS011;4746;35.664;139.738;2023-06-04T03:42:16;8.73;;;4.47;;
9413;SDS011;4746;35.664;139.738;2023-06-04T03:44:44;7.35;;;3.17;;
9413;SDS011;4746;35.664;139.738;2023-06-04T03:47:12;7.10;;;3.88;;
9413;SDS011;4746;35.664;139.738;2023-06-04T03:49:39;9.23;;;4.05;;
9413;SDS011;4746;35.664;139.738;2023-06-04T03:52:07;10.60;;;4.03;;
9413;SDS011;4746;35.664;139.738;2023-06-04T03:54:34;5.57;;;3.60;;
9413;SDS011;4746;35.664;139.738;2023-06-04T03:57:01;7.70;;;3.25;;
9413;SDS011;4746;35.664;139.738;2023-06-04T03:59:29;10.90;;;3.67;;
9413;SDS011;4746;35.664;139.738;2023-06-04T04:01:57;13.00;;;2.95;;
9413;SDS011;4746;35.664;139.738;2023-06-04T04:04:24;7.55;;;3.15;;
9413;SDS011;4746;35.664;139.738;2023-06-04T04:06:52;4.93;;;2.90;;
9413;SDS011;4746;35.664;139.738;2023-06-04T04:09:19;8.90;;;3.03;;
9413;SDS011;4746;35.664;139.738;2023-06-04T04:11:47;8.80;;;3.95;;
9413;SDS011;4746;35.664;139.738;2023-06-04T04:14:14;9.30;;;3.90;;
9413;SDS011;4746;35.664;139.738;2023-06-04T04:16:42;11.82;;;3.30;;
9413;SDS011;4746;35.664;139.738;2023-06-04T04:19:09;7.65;;;3.08;;
9413;SDS011;4746;35.664;139.738;2023-06-04T04:21:37;6.43;;;3.05;;
9413;SDS011;4746;35.664;139.738;2023-06-04T04:24:05;8.77;;;3.00;;
9413;SDS011;4746;35.664;139.738;2023-06-04T04:26:32;10.30;;;3.50;;
9413;SDS011;4746;35.664;139.738;2023-06-04T04:29:00;6.30;;;3.55;;
9413;SDS011;4746;35.664;139.738;2023-06-04T04:31:27;10.13;;;3.55;;
9413;SDS011;4746;35.664;139.738;2023-06-04T04:33:56;14.07;;;4.53;;
9413;SDS011;4746;35.664;139.738;2023-06-04T04:36:23;11.35;;;4.93;;
9413;SDS011;4746;35.664;139.738;2023-06-04T04:38:51;11.05;;;4.57;;
9413;SDS011;4746;35.664;139.738;2023-06-04T04:41:23;9.90;;;3.70;;
9413;SDS011;4746;35.664;139.738;2023-06-04T04:43:52;8.95;;;3.65;;
9413;SDS011;4746;35.664;139.738;2023-06-04T04:46:20;6.78;;;3.47;;
9413;SDS011;4746;35.664;139.738;2023-06-04T04:48:47;11.85;;;4.32;;
9413;SDS011;4746;35.664;139.738;2023-06-04T04:51:15;6.70;;;3.42;;
9413;SDS011;4746;35.664;139.738;2023-06-04T04:53:43;9.00;;;3.42;;
9413;SDS011;4746;35.664;139.738;2023-06-04T04:56:10;10.57;;;4.13;;
9413;SDS011;4746;35.664;139.738;2023-06-04T04:58:38;9.63;;;4.05;;
9413;SDS011;4746;35.664;139.738;2023-06-04T05:01:05;11.63;;;4.57;;
9413;SDS011;4746;35.664;139.738;2023-06-04T05:03:33;14.10;;;4.70;;
9413;SDS011;4746;35.664;139.738;2023-06-04T05:06:01;8.95;;;3.38;;
9413;SDS011;4746;35.664;139.738;2023-06-04T05:08:28;7.97;;;3.83;;
9413;SDS011;4746;35.664;139.738;2023-06-04T05:10:56;8.73;;;3.85;;
9413;SDS011;4746;35.664;139.738;2023-06-04T05:13:23;8.57;;;3.50;;
9413;SDS011;4746;35.664;139.738;2023-06-04T05:15:51;6.40;;;3.58;;
9413;SDS011;4746;35.664;139.738;2023-06-04T05:18:19;11.82;;;3.58;;
9413;SDS011;4746;35.664;139.738;2023-06-04T05:20:47;7.63;;;3.55;;
9413;SDS011;4746;35.664;139.738;2023-06-04T05:23:14;11.95;;;3.78;;
9413;SDS011;4746;35.664;139.738;2023-06-04T05:25:42;11.10;;;3.33;;
9413;SDS011;4746;35.664;139.738;2023-06-04T05:28:09;6.88;;;3.20;;
9413;SDS011;4746;35.664;139.738;2023-06-04T05:30:38;5.55;;;3.33;;
9413;SDS011;4746;35.664;139.738;2023-06-04T05:33:09;7.43;;;3.03;;
9413;SDS011;4746;35.664;139.738;2023-06-04T05:35:48;10.18;;;3.28;;
9413;SDS011;4746;35.664;139.738;2023-06-04T05:38:25;9.45;;;2.90;;
9413;SDS011;4746;35.664;139.738;2023-06-04T05:40:54;6.55;;;2.85;;
9413;SDS011;4746;35.664;139.738;2023-06-04T05:43:22;6.32;;;3.38;;
9413;SDS011;4746;35.664;139.738;2023-06-04T05:45:50;8.20;;;2.88;;
9413;SDS011;4746;35.664;139.738;2023-06-04T05:48:17;10.13;;;3.53;;
9413;SDS011;4746;35.664;139.738;2023-06-04T05:50:45;8.43;;;3.42;;
9413;SDS011;4746;35.664;139.738;2023-06-04T05:53:12;11.93;;;3.53;;
9413;SDS011;4746;35.664;139.738;2023-06-04T05:55:40;10.60;;;3.65;;
9413;SDS011;4746;35.664;139.738;2023-06-04T05:58:08;7.93;;;3.47;;
9413;SDS011;4746;35.664;139.738;2023-06-04T06:00:35;7.22;;;3.33;;
9413;SDS011;4746;35.664;139.738;2023-06-04T06:03:03;5.53;;;2.97;;
9413;SDS011;4746;35.664;139.738;2023-06-04T06:05:31;10.02;;;3.63;;
9413;SDS011;4746;35.664;139.738;2023-06-04T06:07:59;6.68;;;3.22;;
9413;SDS011;4746;35.664;139.738;2023-06-04T06:10:27;10.20;;;3.75;;
9413;SDS011;4746;35.664;139.738;2023-06-04T06:12:55;7.80;;;3.70;;
9413;SDS011;4746;35.664;139.738;2023-06-04T06:15:22;10.13;;;3.72;;
9413;SDS011;4746;35.664;139.738;2023-06-04T06:17:50;9.00;;;3.83;;
9413;SDS011;4746;35.664;139.738;2023-06-04T06:20:18;13.13;;;4.07;;
9413;SDS011;4746;35.664;139.738;2023-06-04T06:22:47;9.05;;;3.53;;
9413;SDS011;4746;35.664;139.738;2023-06-04T06:25:15;12.73;;;5.00;;
9413;SDS011;4746;35.664;139.738;2023-06-04T06:27:42;12.05;;;4.53;;
9413;SDS011;4746;35.664;139.738;2023-06-04T06:30:10;10.40;;;4.25;;
9413;SDS011;4746;35.664;139.738;2023-06-04T06:32:38;8.77;;;3.95;;
9413;SDS011;4746;35.664;139.738;2023-06-04T06:35:06;9.18;;;3.60;;
9413;SDS011;4746;35.664;139.738;2023-06-04T06:37:34;8.88;;;3.90;;
9413;SDS011;4746;35.664;139.738;2023-06-04T06:40:07;11.10;;;5.10;;
9413;SDS011;4746;35.664;139.738;2023-06-04T06:42:36;13.63;;;5.45;;
9413;SDS011;4746;35.664;139.738;2023-06-04T06:45:04;16.63;;;5.50;;
9413;SDS011;4746;35.664;139.738;2023-06-04T06:47:32;12.90;;;5.32;;
9413;SDS011;4746;35.664;139.738;2023-06-04T06:50:00;11.00;;;4.90;;
9413;SDS011;4746;35.664;139.738;2023-06-04T06:52:28;12.65;;;5.15;;
9413;SDS011;4746;35.664;139.738;2023-06-04T06:54:56;13.45;;;5.45;;
9413;SDS011;4746;35.664;139.738;2023-06-04T06:57:23;13.25;;;5.32;;
9413;SDS011;4746;35.664;139.738;2023-06-04T06:59:51;14.95;;;5.22;;
9413;SDS011;4746;35.664;139.738;2023-06-04T07:02:19;10.43;;;4.93;;
9413;SDS011;4746;35.664;139.738;2023-06-04T07:04:47;15.05;;;5.95;;
9413;SDS011;4746;35.664;139.738;2023-06-04T07:07:15;17.52;;;5.88;;
9413;SDS011;4746;35.664;139.738;2023-06-04T07:09:42;8.80;;;5.50;;
9413;SDS011;4746;35.664;139.738;2023-06-04T07:12:12;14.00;;;5.68;;
9413;SDS011;4746;35.664;139.738;2023-06-04T07:14:40;10.85;;;5.50;;
9413;SDS011;4746;35.664;139.738;2023-06-04T07:17:08;23.30;;;6.05;;
9413;SDS011;4746;35.664;139.738;2023-06-04T07:19:36;10.13;;;5.13;;
9413;SDS011;4746;35.664;139.738;2023-06-04T07:22:03;13.93;;;5.18;;
9413;SDS011;4746;35.664;139.738;2023-06-04T07:24:31;14.48;;;6.38;;
9413;SDS011;4746;35.664;139.738;2023-06-04T07:26:58;9.43;;;5.07;;
9413;SDS011;4746;35.664;139.738;2023-06-04T07:29:26;13.60;;;5.60;;
9413;SDS011;4746;35.664;139.738;2023-06-04T07:31:53;10.93;;;5.28;;
9413;SDS011;4746;35.664;139.738;2023-06-04T07:34:21;14.52;;;5.70;;
9413;SDS011;4746;35.664;139.738;2023-06-04T07:36:48;11.60;;;5.60;;
9413;SDS011;4746;35.664;139.738;2023-06-04T07:39:16;12.63;;;5.80;;
9413;SDS011;4746;35.664;139.738;2023-06-04T07:41:43;13.45;;;4.97;;
9413;SDS011;4746;35.664;139.738;2023-06-04T07:44:10;13.77;;;5.18;;
9413;SDS011;4746;35.664;139.738;2023-06-04T07:46:38;17.90;;;6.18;;
9413;SDS011;4746;35.664;139.738;2023-06-04T07:49:05;15.32;;;5.35;;
9413;SDS011;4746;35.664;139.738;2023-06-04T07:51:34;17.27;;;6.10;;
9413;SDS011;4746;35.664;139.738;2023-06-04T07:54:02;13.05;;;5.35;;
9413;SDS011;4746;35.664;139.738;2023-06-04T07:56:30;12.23;;;5.10;;
9413;SDS011;4746;35.664;139.738;2023-06-04T07:58:57;11.00;;;5.35;;
9413;SDS011;4746;35.664;139.738;2023-06-04T08:01:25;13.68;;;5.82;;
9413;SDS011;4746;35.664;139.738;2023-06-04T08:03:52;12.80;;;5.72;;
9413;SDS011;4746;35.664;139.738;2023-06-04T08:06:21;13.60;;;6.30;;
9413;SDS011;4746;35.664;139.738;2023-06-04T08:08:49;16.65;;;6.03;;
9413;SDS011;4746;35.664;139.738;2023-06-04T08:11:17;10.52;;;5.15;;
9413;SDS011;4746;35.664;139.738;2023-06-04T08:13:46;14.50;;;5.80;;
9413;SDS011;4746;35.664;139.738;2023-06-04T08:16:13;11.82;;;5.75;;
9413;SDS011;4746;35.664;139.738;2023-06-04T08:18:42;9.98;;;5.22;;
9413;SDS011;4746;35.664;139.738;2023-06-04T08:21:11;12.38;;;5.22;;
9413;SDS011;4746;35.664;139.738;2023-06-04T08:23:42;13.68;;;4.63;;
9413;SDS011;4746;35.664;139.738;2023-06-04T08:26:10;7.38;;;4.07;;
9413;SDS011;4746;35.664;139.738;2023-06-04T08:28:39;10.93;;;4.20;;
9413;SDS011;4746;35.664;139.738;2023-06-04T08:31:06;11.10;;;4.20;;
9413;SDS011;4746;35.664;139.738;2023-06-04T08:33:34;10.15;;;4.57;;
9413;SDS011;4746;35.664;139.738;2023-06-04T08:36:01;9.25;;;3.50;;
9413;SDS011;4746;35.664;139.738;2023-06-04T08:38:29;10.45;;;4.10;;
9413;SDS011;4746;35.664;139.738;2023-06-04T08:40:57;8.45;;;3.85;;
9413;SDS011;4746;35.664;139.738;2023-06-04T08:43:49;12.07;;;3.97;;
9413;SDS011;4746;35.664;139.738;2023-06-04T08:46:20;8.13;;;3.88;;
9413;SDS011;4746;35.664;139.738;2023-06-04T08:48:50;9.77;;;3.45;;
9413;SDS011;4746;35.664;139.738;2023-06-04T08:51:21;13.25;;;4.00;;
9413;SDS011;4746;35.664;139.738;2023-06-04T08:53:49;5.50;;;3.80;;
9413;SDS011;4746;35.664;139.738;2023-06-04T08:56:21;9.55;;;4.18;;
9413;SDS011;4746;35.664;139.738;2023-06-04T08:58:49;11.45;;;4.05;;
9413;SDS011;4746;35.664;139.738;2023-06-04T09:01:17;7.70;;;4.78;;
9413;SDS011;4746;35.664;139.738;2023-06-04T09:03:45;8.50;;;5.22;;
9413;SDS011;4746;35.664;139.738;2023-06-04T09:06:13;9.27;;;4.60;;
9413;SDS011;4746;35.664;139.738;2023-06-04T09:08:42;8.50;;;4.45;;
9413;SDS011;4746;35.664;139.738;2023-06-04T09:11:11;12.48;;;5.15;;
9413;SDS011;4746;35.664;139.738;2023-06-04T09:13:43;12.73;;;4.97;;
9413;SDS011;4746;35.664;139.738;2023-06-04T09:16:14;6.45;;;4.03;;
9413;SDS011;4746;35.664;139.738;2023-06-04T09:18:41;7.85;;;4.00;;
9413;SDS011;4746;35.664;139.738;2023-06-04T09:21:10;9.75;;;4.75;;
9413;SDS011;4746;35.664;139.738;2023-06-04T09:23:44;7.22;;;3.88;;
9413;SDS011;4746;35.664;139.738;2023-06-04T09:26:13;8.98;;;4.43;;
9413;SDS011;4746;35.664;139.738;2023-06-04T09:28:45;12.80;;;5.05;;
9413;SDS011;4746;35.664;139.738;2023-06-04T09:31:15;11.70;;;5.70;;
9413;SDS011;4746;35.664;139.738;2023-06-04T09:33:48;11.75;;;5.28;;
9413;SDS011;4746;35.664;139.738;2023-06-04T09:36:18;11.35;;;5.18;;
9413;SDS011;4746;35.664;139.738;2023-06-04T09:38:47;11.02;;;4.75;;
9413;SDS011;4746;35.664;139.738;2023-06-04T09:41:15;13.10;;;5.25;;
9413;SDS011;4746;35.664;139.738;2023-06-04T09:43:47;7.28;;;4.82;;
9413;SDS011;4746;35.664;139.738;2023-06-04T09:46:16;10.52;;;4.63;;
9413;SDS011;4746;35.664;139.738;2023-06-04T09:48:44;12.65;;;5.20;;
9413;SDS011;4746;35.664;139.738;2023-06-04T09:51:15;8.25;;;4.70;;
9413;SDS011;4746;35.664;139.738;2023-06-04T09:53:55;12.65;;;4.80;;
9413;SDS011;4746;35.664;139.738;2023-06-04T09:56:24;9.30;;;4.97;;
9413;SDS011;4746;35.664;139.738;2023-06-04T09:58:57;11.88;;;5.07;;
9413;SDS011;4746;35.664;139.738;2023-06-04T10:01:27;7.57;;;4.32;;
9413;SDS011;4746;35.664;139.738;2023-06-04T10:03:57;11.05;;;5.30;;
9413;SDS011;4746;35.664;139.738;2023-06-04T10:06:32;11.02;;;5.75;;
9413;SDS011;4746;35.664;139.738;2023-06-04T10:09:05;9.55;;;5.35;;
9413;SDS011;4746;35.664;139.738;2023-06-04T10:11:39;11.95;;;5.20;;
9413;SDS011;4746;35.664;139.738;2023-06-04T10:16:57;8.98;;;4.78;;
9413;SDS011;4746;35.664;139.738;2023-06-04T10:19:27;13.25;;;5.45;;
9413;SDS011;4746;35.664;139.738;2023-06-04T10:21:55;10.80;;;5.43;;
9413;SDS011;4746;35.664;139.738;2023-06-04T10:24:25;10.77;;;5.28;;
9413;SDS011;4746;35.664;139.738;2023-06-04T10:26:54;9.43;;;5.20;;
9413;SDS011;4746;35.664;139.738;2023-06-04T10:29:25;8.77;;;5.25;;
9413;SDS011;4746;35.664;139.738;2023-06-04T10:31:55;8.93;;;5.35;;
9413;SDS011;4746;35.664;139.738;2023-06-04T10:34:23;8.70;;;5.10;;
9413;SDS011;4746;35.664;139.738;2023-06-04T10:36:53;9.50;;;5.65;;
9413;SDS011;4746;35.664;139.738;2023-06-04T10:39:31;15.07;;;5.65;;
9413;SDS011;4746;35.664;139.738;2023-06-04T10:42:02;12.30;;;5.05;;
9413;SDS011;4746;35.664;139.738;2023-06-04T10:44:32;11.82;;;5.47;;
9413;SDS011;4746;35.664;139.738;2023-06-04T10:47:21;9.85;;;4.72;;
9413;SDS011;4746;35.664;139.738;2023-06-04T10:49:53;12.27;;;5.00;;
9413;SDS011;4746;35.664;139.738;2023-06-04T10:52:32;10.57;;;4.88;;
9413;SDS011;4746;35.664;139.738;2023-06-04T10:55:03;10.23;;;5.40;;
9413;SDS011;4746;35.664;139.738;2023-06-04T10:57:34;14.63;;;6.53;;
9413;SDS011;4746;35.664;139.738;2023-06-04T11:00:02;11.40;;;5.53;;
9413;SDS011;4746;35.664;139.738;2023-06-04T11:02:35;14.77;;;6.03;;
9413;SDS011;4746;35.664;139.738;2023-06-04T11:05:05;9.05;;;5.30;;
9413;SDS011;4746;35.664;139.738;2023-06-04T11:07:42;13.45;;;5.95;;
9413;SDS011;4746;35.664;139.738;2023-06-04T11:10:12;15.77;;;5.75;;
9413;SDS011;4746;35.664;139.738;2023-06-04T11:12:42;10.73;;;5.38;;
9413;SDS011;4746;35.664;139.738;2023-06-04T11:15:16;10.35;;;5.45;;
9413;SDS011;4746;35.664;139.738;2023-06-04T11:17:50;10.32;;;5.88;;
9413;SDS011;4746;35.664;139.738;2023-06-04T11:20:25;12.25;;;5.20;;
9413;SDS011;4746;35.664;139.738;2023-06-04T11:22:56;9.65;;;5.47;;
9413;SDS011;4746;35.664;139.738;2023-06-04T11:25:28;12.70;;;6.13;;
9413;SDS011;4746;35.664;139.738;2023-06-04T11:27:58;9.65;;;5.85;;
9413;SDS011;4746;35.664;139.738;2023-06-04T11:30:29;10.38;;;6.03;;
9413;SDS011;4746;35.664;139.738;2023-06-04T11:33:00;8.80;;;5.38;;
9413;SDS011;4746;35.664;139.738;2023-06-04T11:35:39;9.50;;;6.38;;
9413;SDS011;4746;35.664;139.738;2023-06-04T11:38:08;10.40;;;5.57;;
9413;SDS011;4746;35.664;139.738;2023-06-04T11:40:36;11.25;;;5.90;;
9413;SDS011;4746;35.664;139.738;2023-06-04T11:43:04;11.07;;;5.75;;
9413;SDS011;4746;35.664;139.738;2023-06-04T11:45:36;13.65;;;6.60;;
9413;SDS011;4746;35.664;139.738;2023-06-04T11:48:05;10.15;;;5.95;;
9413;SDS011;4746;35.664;139.738;2023-06-04T11:50:36;14.57;;;6.38;;
9413;SDS011;4746;35.664;139.738;2023-06-04T11:53:04;10.68;;;6.00;;
9413;SDS011;4746;35.664;139.738;2023-06-04T11:55:31;9.90;;;5.78;;
9413;SDS011;4746;35.664;139.738;2023-06-04T11:57:59;10.88;;;5.80;;
9413;SDS011;4746;35.664;139.738;2023-06-04T12:00:27;10.38;;;5.80;;
9413;SDS011;4746;35.664;139.738;2023-06-04T12:02:55;10.38;;;5.38;;
9413;SDS011;4746;35.664;139.738;2023-06-04T12:05:33;11.43;;;5.45;;
9413;SDS011;4746;35.664;139.738;2023-06-04T12:08:04;17.65;;;7.07;;
9413;SDS011;4746;35.664;139.738;2023-06-04T12:10:41;11.90;;;6.18;;
9413;SDS011;4746;35.664;139.738;2023-06-04T12:13:10;11.27;;;5.88;;
9413;SDS011;4746;35.664;139.738;2023-06-04T12:15:37;13.65;;;7.15;;
9413;SDS011;4746;35.664;139.738;2023-06-04T12:18:05;16.50;;;7.32;;
9413;SDS011;4746;35.664;139.738;2023-06-04T12:20:35;12.30;;;7.55;;
9413;SDS011;4746;35.664;139.738;2023-06-04T12:23:05;12.77;;;7.55;;
9413;SDS011;4746;35.664;139.738;2023-06-04T12:25:34;13.15;;;8.10;;
9413;SDS011;4746;35.664;139.738;2023-06-04T12:28:07;13.35;;;7.65;;
9413;SDS011;4746;35.664;139.738;2023-06-04T12:30:44;16.52;;;8.27;;
9413;SDS011;4746;35.664;139.738;2023-06-04T12:33:12;14.43;;;7.15;;
9413;SDS011;4746;35.664;139.738;2023-06-04T12:35:39;13.05;;;7.95;;
9413;SDS011;4746;35.664;139.738;2023-06-04T12:38:07;11.50;;;6.70;;
9413;SDS011;4746;35.664;139.738;2023-06-04T12:40:34;12.25;;;6.55;;
9413;SDS011;4746;35.664;139.738;2023-06-04T12:43:02;12.38;;;6.93;;
9413;SDS011;4746;35.664;139.738;2023-06-04T12:45:32;11.52;;;6.22;;
9413;SDS011;4746;35.664;139.738;2023-06-04T12:48:00;17.20;;;7.68;;
9413;SDS011;4746;35.664;139.738;2023-06-04T12:50:27;18.88;;;7.30;;
9413;SDS011;4746;35.664;139.738;2023-06-04T12:52:55;16.20;;;7.10;;
9413;SDS011;4746;35.664;139.738;2023-06-04T12:55:22;11.60;;;6.43;;
9413;SDS011;4746;35.664;139.738;2023-06-04T12:57:50;11.90;;;6.68;;
9413;SDS011;4746;35.664;139.738;2023-06-04T13:00:19;13.23;;;7.88;;
9413;SDS011;4746;35.664;139.738;2023-06-04T13:02:46;13.88;;;8.60;;
9413;SDS011;4746;35.664;139.738;2023-06-04T13:05:14;16.13;;;7.65;;
9413;SDS011;4746;35.664;139.738;2023-06-04T13:07:41;15.05;;;7.75;;
9413;SDS011;4746;35.664;139.738;2023-06-04T13:10:09;13.88;;;7.55;;
9413;SDS011;4746;35.664;139.738;2023-06-04T13:12:36;17.27;;;9.05;;
9413;SDS011;4746;35.664;139.738;2023-06-04T13:15:04;16.48;;;8.20;;
9413;SDS011;4746;35.664;139.738;2023-06-04T13:17:32;13.35;;;7.45;;
9413;SDS011;4746;35.664;139.738;2023-06-04T13:20:00;16.00;;;9.10;;
9413;SDS011;4746;35.664;139.738;2023-06-04T13:22:31;15.80;;;6.93;;
9413;SDS011;4746;35.664;139.738;2023-06-04T13:24:58;10.93;;;7.13;;
9413;SDS011;4746;35.664;139.738;2023-06-04T13:27:26;13.63;;;7.25;;
9413;SDS011;4746;35.664;139.738;2023-06-04T13:29:53;14.60;;;8.13;;
9413;SDS011;4746;35.664;139.738;2023-06-04T13:32:21;14.65;;;8.15;;
9413;SDS011;4746;35.664;139.738;2023-06-04T13:34:48;16.95;;;8.10;;
9413;SDS011;4746;35.664;139.738;2023-06-04T13:37:16;15.45;;;8.40;;
9413;SDS011;4746;35.664;139.738;2023-06-04T13:39:43;14.40;;;7.35;;
9413;SDS011;4746;35.664;139.738;2023-06-04T13:42:10;17.27;;;7.72;;
9413;SDS011;4746;35.664;139.738;2023-06-04T13:44:38;10.55;;;7.93;;
9413;SDS011;4746;35.664;139.738;2023-06-04T13:47:05;14.77;;;8.07;;
9413;SDS011;4746;35.664;139.738;2023-06-04T13:49:33;13.65;;;8.45;;
9413;SDS011;4746;35.664;139.738;2023-06-04T13:52:03;20.92;;;8.80;;
9413;SDS011;4746;35.664;139.738;2023-06-04T13:54:31;16.75;;;9.20;;
9413;SDS011;4746;35.664;139.738;2023-06-04T13:57:01;13.48;;;8.02;;
9413;SDS011;4746;35.664;139.738;2023-06-04T13:59:34;14.43;;;7.93;;
9413;SDS011;4746;35.664;139.738;2023-06-04T14:02:02;15.07;;;8.73;;
9413;SDS011;4746;35.664;139.738;2023-06-04T14:04:29;17.48;;;8.13;;
9413;SDS011;4746;35.664;139.738;2023-06-04T14:06:57;13.00;;;8.10;;
9413;SDS011;4746;35.664;139.738;2023-06-04T14:09:25;16.00;;;7.68;;
9413;SDS011;4746;35.664;139.738;2023-06-04T14:11:53;15.85;;;8.18;;
9413;SDS011;4746;35.664;139.738;2023-06-04T14:14:20;14.63;;;8.07;;
9413;SDS011;4746;35.664;139.738;2023-06-04T14:16:48;14.48;;;7.75;;
9413;SDS011;4746;35.664;139.738;2023-06-04T14:19:15;13.55;;;7.20;;
9413;SDS011;4746;35.664;139.738;2023-06-04T14:21:43;11.27;;;7.60;;
9413;SDS011;4746;35.664;139.738;2023-06-04T14:24:11;11.35;;;7.30;;
9413;SDS011;4746;35.664;139.738;2023-06-04T14:26:38;12.95;;;7.05;;
9413;SDS011;4746;35.664;139.738;2023-06-04T14:29:05;12.35;;;6.50;;
9413;SDS011;4746;35.664;139.738;2023-06-04T14:31:33;14.57;;;6.65;;
9413;SDS011;4746;35.664;139.738;2023-06-04T14:34:01;13.68;;;7.63;;
9413;SDS011;4746;35.664;139.738;2023-06-04T14:36:29;10.60;;;7.18;;
9413;SDS011;4746;35.664;139.738;2023-06-04T14:38:57;11.68;;;7.05;;
9413;SDS011;4746;35.664;139.738;2023-06-04T14:41:24;12.00;;;7.05;;
9413;SDS011;4746;35.664;139.738;2023-06-04T14:43:54;12.32;;;7.18;;
9413;SDS011;4746;35.664;139.738;2023-06-04T14:46:22;12.07;;;6.53;;
9413;SDS011;4746;35.664;139.738;2023-06-04T14:48:50;11.70;;;7.80;;
9413;SDS011;4746;35.664;139.738;2023-06-04T14:51:20;9.73;;;6.85;;
9413;SDS011;4746;35.664;139.738;2023-06-04T14:53:48;14.95;;;7.85;;
9413;SDS011;4746;35.664;139.738;2023-06-04T14:56:18;13.25;;;7.43;;
9413;SDS011;4746;35.664;139.738;2023-06-04T14:58:46;12.98;;;7.78;;
9413;SDS011;4746;35.664;139.738;2023-06-04T15:01:13;9.45;;;6.90;;